Time;durP1;ratioP1;P1;durP2;ratioP2;P2;SDS_P1;SDS_P2;PMS_P1;PMS_P2;Temp;Humidity;BMP_temperature;BMP_pressure;BME280_temperature;BME280_humidity;BME280_pressure;Samples;Min_cycle;Max_cycle;Signal;HPM_P1;HPM_P2
2024/02/04 00:00:36;;;;;;;16.75;11.32;;;-0.10;99.90;;;;;;5073879;28;20081;-81
2024/02/04 00:03:03;;;;;;;17.10;9.27;;;-0.20;99.90;;;;;;5075357;28;20028;-82
2024/02/04 00:05:28;;;;;;;17.60;10.05;;;-0.20;99.90;;;;;;5075323;28;20052;-81
2024/02/04 00:07:54;;;;;;;14.25;8.38;;;-0.30;99.90;;;;;;5073691;28;20044;-81
2024/02/04 00:10:20;;;;;;;18.38;10.70;;;-0.30;99.90;;;;;;5074310;28;20058;-83
2024/02/04 00:12:46;;;;;;;16.38;10.52;;;-0.40;99.90;;;;;;5075390;28;20024;-81
2024/02/04 00:15:12;;;;;;;19.90;10.15;;;-0.40;99.90;;;;;;5073335;28;20086;-81
2024/02/04 00:17:38;;;;;;;15.10;8.43;;;-0.30;99.90;;;;;;5066638;28;20049;-80
2024/02/04 00:20:05;;;;;;;20.45;9.30;;;-0.30;99.90;;;;;;5076632;28;20032;-81
2024/02/04 00:22:31;;;;;;;;;;;-0.40;99.90;;;;;;5076588;28;20061;-82
2024/02/04 00:25:01;;;;;;;15.05;8.68;;;-0.40;99.90;;;;;;5074140;28;19910;-82
2024/02/04 00:27:27;;;;;;;18.33;9.57;;;-0.40;99.90;;;;;;5073070;28;20027;-80
2024/02/04 00:29:53;;;;;;;15.75;9.40;;;-0.50;99.90;;;;;;5071937;28;20077;-82
2024/02/04 00:32:19;;;;;;;16.67;9.68;;;-0.40;99.90;;;;;;5072883;28;20024;-82
2024/02/04 00:34:44;;;;;;;13.18;9.23;;;-0.40;99.90;;;;;;5075200;28;20068;-82
2024/02/04 00:37:10;;;;;;;18.23;9.85;;;-0.30;99.90;;;;;;5069039;28;20477;-82
2024/02/04 00:39:36;;;;;;;17.95;9.90;;;-0.30;99.90;;;;;;5074388;28;20078;-82
2024/02/04 00:42:02;;;;;;;15.13;9.38;;;-0.30;99.90;;;;;;5073181;28;20071;-81
2024/02/04 00:44:28;;;;;;;14.93;9.52;;;-0.30;99.90;;;;;;5085208;28;20024;-82
2024/02/04 00:46:53;;;;;;;15.52;9.75;;;-0.20;99.90;;;;;;5074171;28;20024;-80
2024/02/04 00:49:19;;;;;;;14.18;10.02;;;-0.10;99.90;;;;;;5079228;28;20028;-81
2024/02/04 00:51:45;;;;;;;13.65;9.07;;;-0.10;99.90;;;;;;5073815;28;20021;-81
2024/02/04 00:54:11;;;;;;;14.90;9.45;;;-0.10;99.90;;;;;;5072611;28;20066;-80
2024/02/04 00:56:38;;;;;;;14.15;8.57;;;0.00;99.90;;;;;;5076704;28;20039;-81
2024/02/04 00:59:03;;;;;;;11.10;8.85;;;0.00;99.90;;;;;;5071218;28;20035;-81
2024/02/04 01:01:29;;;;;;;11.73;7.47;;;0.00;99.90;;;;;;5075031;28;20557;-81
2024/02/04 01:03:55;;;;;;;11.65;6.95;;;0.10;99.90;;;;;;5073104;28;20107;-80
2024/02/04 01:06:21;;;;;;;10.70;7.38;;;0.00;99.90;;;;;;5079863;28;20016;-82
2024/02/04 01:08:46;;;;;;;10.63;7.22;;;0.10;99.90;;;;;;5079792;28;20052;-82
2024/02/04 01:11:12;;;;;;;9.95;5.90;;;0.10;99.90;;;;;;5071076;28;20029;-81
2024/02/04 01:13:38;;;;;;;8.40;6.03;;;0.20;99.90;;;;;;5073113;28;20020;-81
2024/02/04 01:16:04;;;;;;;9.13;6.50;;;0.20;99.90;;;;;;5071050;28;20036;-82
2024/02/04 01:18:31;;;;;;;9.75;6.47;;;0.20;99.90;;;;;;5071325;28;20488;-82
2024/02/04 01:20:58;;;;;;;8.75;5.32;;;0.30;99.90;;;;;;5081011;28;20107;-82
2024/02/04 01:23:24;;;;;;;9.85;6.20;;;0.30;99.90;;;;;;5071691;28;20074;-81
2024/02/04 01:25:49;;;;;;;9.57;6.18;;;0.30;99.90;;;;;;5071798;28;20091;-80
2024/02/04 01:28:15;;;;;;;8.43;6.25;;;0.30;99.90;;;;;;5072173;28;20016;-81
2024/02/04 01:30:41;;;;;;;9.38;6.18;;;0.30;99.90;;;;;;5072032;28;20478;-80
2024/02/04 01:33:07;;;;;;;8.80;6.10;;;0.30;99.90;;;;;;5071806;28;20029;-81
2024/02/04 01:35:33;;;;;;;9.68;7.18;;;0.30;99.90;;;;;;5071213;28;20147;-80
2024/02/04 01:37:58;;;;;;;13.63;6.00;;;0.30;99.90;;;;;;5076554;28;20027;-81
2024/02/04 01:40:24;;;;;;;9.23;6.43;;;0.30;99.90;;;;;;5070586;28;20025;-79
2024/02/04 01:42:50;;;;;;;7.47;5.72;;;0.30;99.90;;;;;;5070741;28;20489;-81
2024/02/04 01:45:16;;;;;;;9.18;5.40;;;0.30;99.90;;;;;;5072109;28;20017;-81
2024/02/04 01:47:42;;;;;;;8.95;6.20;;;0.30;99.90;;;;;;5070624;28;20047;-80
2024/02/04 01:50:08;;;;;;;8.93;6.97;;;0.30;99.90;;;;;;5074688;28;20382;-79
2024/02/04 01:52:37;;;;;;;9.15;5.85;;;0.30;99.90;;;;;;5062937;28;20048;-81
2024/02/04 01:55:05;;;;;;;9.60;6.70;;;0.40;99.90;;;;;;5077655;28;20098;-80
2024/02/04 01:57:32;;;;;;;7.45;6.07;;;0.40;99.90;;;;;;5074833;28;20021;-80
2024/02/04 01:59:58;;;;;;;11.70;7.43;;;0.40;99.90;;;;;;5072645;28;20028;-80
2024/02/04 02:02:25;;;;;;;10.30;6.57;;;0.40;99.90;;;;;;5071307;28;20052;-81
2024/02/04 02:04:52;;;;;;;10.52;7.00;;;0.40;99.90;;;;;;5073349;28;20381;-80
2024/02/04 02:07:21;;;;;;;8.65;6.65;;;0.40;99.90;;;;;;5055219;28;20036;-81
2024/02/04 02:09:47;;;;;;;9.45;6.20;;;0.40;99.90;;;;;;5064083;28;20061;-81
2024/02/04 02:12:30;;;;;;;7.53;5.82;;;0.40;99.90;;;;;;5068069;28;20024;-80
2024/02/04 02:15:09;;;;;;;8.48;6.28;;;0.40;99.90;;;;;;5068690;28;20097;-80
2024/02/04 02:17:49;;;;;;;9.48;6.07;;;0.40;99.90;;;;;;5066642;28;20019;-80
2024/02/04 02:20:50;;;;;;;11.82;6.75;;;0.40;99.90;;;;;;5077304;28;20022;-80
2024/02/04 02:23:29;;;;;;;9.23;6.68;;;0.40;99.90;;;;;;5069663;28;20020;-79
2024/02/04 02:25:55;;;;;;;10.55;5.88;;;0.40;99.90;;;;;;5062106;28;20048;-79
2024/02/04 02:28:21;;;;;;;7.82;5.43;;;0.40;99.90;;;;;;5074734;28;20042;-80
2024/02/04 02:30:47;;;;;;;8.98;5.55;;;0.40;99.90;;;;;;5077595;28;20108;-81
2024/02/04 02:33:13;;;;;;;8.65;5.28;;;0.40;99.90;;;;;;5067038;28;20016;-82
2024/02/04 02:35:39;;;;;;;9.07;5.85;;;0.40;99.90;;;;;;5076575;28;20308;-83
2024/02/04 02:38:26;;;;;;;9.77;6.10;;;0.40;99.90;;;;;;5074427;28;20074;-83
2024/02/04 02:40:58;;;;;;;8.05;5.38;;;0.50;99.90;;;;;;5079269;28;20394;-81
2024/02/04 02:43:25;;;;;;;7.28;4.90;;;0.50;99.90;;;;;;5075789;28;20024;-81
2024/02/04 02:45:51;;;;;;;;;;;0.50;99.90;;;;;;5079912;28;20074;-83
2024/02/04 02:48:18;;;;;;;6.35;3.83;;;0.50;99.90;;;;;;5076688;28;20397;-83
2024/02/04 02:50:44;;;;;;;7.97;4.33;;;0.50;99.90;;;;;;5081158;28;20024;-82
2024/02/04 02:53:10;;;;;;;5.60;4.40;;;0.50;99.90;;;;;;5105784;28;20017;-82
2024/02/04 02:55:35;;;;;;;6.63;3.83;;;0.60;99.90;;;;;;5084630;28;20483;-82
2024/02/04 02:58:01;;;;;;;5.88;4.28;;;0.60;99.90;;;;;;5083302;28;20029;-81
2024/02/04 03:00:27;;;;;;;5.50;4.13;;;0.60;99.90;;;;;;5075616;28;20020;-82
2024/02/04 03:02:53;;;;;;;5.95;3.50;;;0.70;99.90;;;;;;5075252;28;20028;-82
2024/02/04 03:05:19;;;;;;;5.72;3.60;;;0.70;99.90;;;;;;5075042;28;20025;-81
2024/02/04 03:07:45;;;;;;;6.03;4.88;;;0.70;99.90;;;;;;5074686;28;20743;-82
2024/02/04 03:10:10;;;;;;;7.10;4.50;;;0.70;99.90;;;;;;5075113;28;20023;-82
2024/02/04 03:12:36;;;;;;;6.20;4.10;;;0.70;99.90;;;;;;5075008;28;20024;-83
2024/02/04 03:15:02;;;;;;;5.82;4.03;;;0.70;99.90;;;;;;5063960;28;20047;-82
2024/02/04 03:17:28;;;;;;;5.50;3.97;;;0.70;99.90;;;;;;5072894;28;20020;-83
2024/02/04 03:19:54;;;;;;;5.70;4.22;;;0.70;99.90;;;;;;5074588;28;20029;-81
2024/02/04 03:22:24;;;;;;;6.53;3.78;;;0.80;99.90;;;;;;5072570;28;20031;-83
2024/02/04 03:24:50;;;;;;;5.53;3.67;;;0.80;99.90;;;;;;5074441;28;20031;-82
2024/02/04 03:27:17;;;;;;;6.95;4.60;;;0.80;99.90;;;;;;5078092;28;20021;-84
2024/02/04 03:29:43;;;;;;;3.78;2.90;;;0.90;99.90;;;;;;5076949;28;20574;-82
2024/02/04 03:32:11;;;;;;;4.70;3.83;;;0.90;99.90;;;;;;5067191;28;20029;-82
2024/02/04 03:34:36;;;;;;;4.70;3.22;;;1.00;99.90;;;;;;5070387;28;20021;-80
2024/02/04 03:37:02;;;;;;;5.00;3.15;;;1.00;99.90;;;;;;5074757;28;20044;-81
2024/02/04 03:39:28;;;;;;;5.03;2.75;;;1.00;99.90;;;;;;5075069;28;20509;-82
2024/02/04 03:41:54;;;;;;;4.40;3.30;;;1.10;99.90;;;;;;5076613;28;20024;-81
2024/02/04 03:44:20;;;;;;;6.18;4.05;;;1.10;99.90;;;;;;5078584;28;20033;-82
2024/02/04 03:46:51;;;;;;;5.93;3.67;;;1.20;99.90;;;;;;5074070;28;20107;-82
2024/02/04 03:49:17;;;;;;;5.60;3.55;;;1.20;99.90;;;;;;5069403;28;20029;-82
2024/02/04 03:51:44;;;;;;;5.75;4.25;;;1.20;99.90;;;;;;5069702;28;20350;-81
2024/02/04 03:54:09;;;;;;;6.28;4.38;;;1.30;99.90;;;;;;5073607;28;20103;-81
2024/02/04 03:56:35;;;;;;;5.60;4.05;;;1.30;99.90;;;;;;5072767;28;20119;-80
2024/02/04 03:59:01;;;;;;;5.65;3.67;;;1.30;99.90;;;;;;5073674;28;20420;-80
2024/02/04 04:01:27;;;;;;;6.50;4.10;;;1.40;99.90;;;;;;5079373;28;20150;-80
2024/02/04 04:03:53;;;;;;;5.15;4.40;;;1.30;99.90;;;;;;5073298;28;20035;-80
2024/02/04 04:06:19;;;;;;;4.90;3.80;;;1.30;99.90;;;;;;5073281;28;20087;-82
2024/02/04 04:08:44;;;;;;;5.07;4.38;;;1.30;99.90;;;;;;5072428;28;20514;-81
2024/02/04 04:11:11;;;;;;;4.50;3.97;;;1.30;99.90;;;;;;5073894;28;20024;-78
2024/02/04 04:13:37;;;;;;;4.07;3.28;;;1.30;99.90;;;;;;5069205;28;20028;-80
2024/02/04 04:16:04;;;;;;;5.40;3.67;;;1.30;99.90;;;;;;5074130;28;20047;-79
2024/02/04 04:18:30;;;;;;;5.45;3.78;;;1.30;99.90;;;;;;5074649;28;20028;-80
2024/02/04 04:20:56;;;;;;;5.93;2.72;;;1.40;99.90;;;;;;5076623;28;20448;-80
2024/02/04 04:23:22;;;;;;;2.97;2.40;;;1.40;99.90;;;;;;5074452;28;20116;-81
2024/02/04 04:25:48;;;;;;;3.25;2.50;;;1.40;99.90;;;;;;5079023;28;20059;-81
2024/02/04 04:28:14;;;;;;;3.90;2.55;;;1.50;99.90;;;;;;5085630;28;20028;-82
2024/02/04 04:30:41;;;;;;;4.43;2.28;;;1.50;99.90;;;;;;5070186;28;20052;-82
2024/02/04 04:33:08;;;;;;;3.63;2.47;;;;;;;;;;5072961;28;20040;-83
2024/02/04 04:35:34;;;;;;;5.05;2.53;;;;;;;;;;5073249;28;20028;-83
2024/02/04 04:38:01;;;;;;;4.57;2.13;;;;;;;;;;5074918;28;20047;-83
2024/02/04 04:40:27;;;;;;;3.63;1.73;;;;;;;;;;5075087;28;20028;-82
2024/02/04 04:42:53;;;;;;;2.80;1.77;;;;;;;;;;5080865;28;20086;-82
2024/02/04 04:45:21;;;;;;;6.43;1.90;;;;;;;;;;5080179;28;20046;-82
2024/02/04 04:47:47;;;;;;;3.97;2.03;;;;;;;;;;5074733;28;20020;-82
2024/02/04 04:50:13;;;;;;;2.33;2.00;;;;;;;;;;5077095;28;20123;-83
2024/02/04 04:52:39;;;;;;;2.95;1.85;;;1.50;99.90;;;;;;5073169;28;20411;-83
2024/02/04 04:55:05;;;;;;;1.38;1.27;;;1.40;99.90;;;;;;5069553;28;20162;-84
2024/02/04 04:57:31;;;;;;;4.05;2.00;;;1.40;99.90;;;;;;5079942;28;20385;-83
2024/02/04 05:00:00;;;;;;;3.03;1.88;;;1.40;99.90;;;;;;5079420;28;20040;-84
2024/02/04 05:02:26;;;;;;;1.70;1.35;;;1.50;99.90;;;;;;5082003;28;20080;-83
2024/02/04 05:04:52;;;;;;;4.38;1.80;;;1.50;99.90;;;;;;5077046;28;20055;-85
2024/02/04 05:07:18;;;;;;;2.55;2.03;;;1.50;99.90;;;;;;5073231;28;20020;-85
2024/02/04 05:09:45;;;;;;;4.72;2.92;;;1.60;99.90;;;;;;5073841;28;20020;-84
2024/02/04 05:12:11;;;;;;;3.25;2.58;;;1.50;99.90;;;;;;5072406;28;20531;-84
2024/02/04 05:14:36;;;;;;;4.03;2.70;;;1.60;99.90;;;;;;5070974;28;20033;-83
2024/02/04 05:17:03;;;;;;;3.85;2.60;;;1.60;99.90;;;;;;5074087;28;20082;-85
2024/02/04 05:19:29;;;;;;;4.70;2.10;;;1.60;99.90;;;;;;5075140;28;20017;-86
2024/02/04 05:21:55;;;;;;;3.33;2.10;;;1.60;99.90;;;;;;5076852;28;20028;-85
2024/02/04 05:24:20;;;;;;;2.85;1.65;;;1.60;99.90;;;;;;5083024;28;20024;-86
2024/02/04 05:26:46;;;;;;;3.47;2.80;;;1.60;99.90;;;;;;5089491;28;20025;-84
2024/02/04 05:29:12;;;;;;;9.25;2.58;;;1.60;99.90;;;;;;5070832;28;20079;-85
2024/02/04 05:31:42;;;;;;;1.90;1.70;;;1.60;99.90;;;;;;5067199;28;20071;-87
2024/02/04 05:34:09;;;;;;;2.67;2.00;;;1.60;99.90;;;;;;5065909;28;20057;-86
2024/02/04 05:36:34;;;;;;;4.20;1.67;;;1.60;99.90;;;;;;5073758;28;20558;-85
2024/02/04 05:39:15;;;;;;;3.70;1.80;;;1.60;99.90;;;;;;5072097;28;20028;-85
2024/02/04 05:41:42;;;;;;;1.95;1.63;;;1.70;99.90;;;;;;5076098;28;20047;-85
2024/02/04 05:44:08;;;;;;;2.15;1.55;;;1.70;99.90;;;;;;5073265;28;20028;-85
2024/02/04 05:46:38;;;;;;;0.93;0.80;;;1.60;99.90;;;;;;5080413;28;20020;-86
2024/02/04 05:49:04;;;;;;;4.15;1.50;;;1.60;99.90;;;;;;5080398;28;20041;-85
2024/02/04 05:51:39;;;;;;;3.10;1.00;;;1.60;99.90;;;;;;5078186;28;20040;-83
2024/02/04 05:54:05;;;;;;;2.20;1.00;;;1.70;99.90;;;;;;5083651;28;20528;-83
2024/02/04 05:56:31;;;;;;;2.05;0.85;;;1.70;99.90;;;;;;5084711;28;20036;-84
2024/02/04 05:58:57;;;;;;;1.23;0.80;;;1.60;99.90;;;;;;5081145;28;20028;-85
2024/02/04 06:01:23;;;;;;;1.00;0.80;;;1.60;99.90;;;;;;5085910;28;20025;-84
2024/02/04 06:03:48;;;;;;;0.70;0.70;;;1.60;99.90;;;;;;5090810;28;20032;-84
2024/02/04 06:06:15;;;;;;;1.55;1.00;;;1.70;99.90;;;;;;5086527;28;20477;-85
2024/02/04 06:08:42;;;;;;;2.70;1.13;;;1.60;99.90;;;;;;5078510;28;20040;-87
2024/02/04 06:11:12;;;;;;;2.22;1.35;;;1.70;99.90;;;;;;5070485;28;20039;-84
2024/02/04 06:13:42;;;;;;;0.93;0.60;;;1.70;99.90;;;;;;5075781;28;20036;-85
2024/02/04 06:16:10;;;;;;;1.42;0.75;;;1.70;99.90;;;;;;5076374;28;20063;-85
2024/02/04 06:18:38;;;;;;;1.92;0.70;;;1.60;99.90;;;;;;5076325;28;20075;-84
2024/02/04 06:21:05;;;;;;;9.55;1.00;;;1.60;99.90;;;;;;5075230;28;20470;-87
2024/02/04 06:23:31;;;;;;;1.80;0.80;;;1.60;99.90;;;;;;5077499;28;20016;-85
2024/02/04 06:25:57;;;;;;;2.97;2.28;;;1.60;99.90;;;;;;5096607;28;20047;-85
2024/02/04 06:28:22;;;;;;;1.02;0.82;;;1.60;99.90;;;;;;5088308;28;20024;-85
2024/02/04 06:30:49;;;;;;;1.10;1.00;;;1.60;99.90;;;;;;5078407;28;20052;-83
2024/02/04 06:33:15;;;;;;;1.90;0.50;;;1.50;99.90;;;;;;5089663;28;20067;-87
2024/02/04 06:35:41;;;;;;;2.05;0.90;;;1.50;99.90;;;;;;5088973;28;20029;-84
2024/02/04 06:38:08;;;;;;;1.15;1.02;;;1.40;99.90;;;;;;5076535;28;20086;-86
2024/02/04 06:40:34;;;;;;;1.33;1.00;;;1.40;99.90;;;;;;5074677;28;20116;-87
2024/02/04 06:42:59;;;;;;;1.25;0.85;;;1.40;99.90;;;;;;5077140;28;20274;-86
2024/02/04 06:45:25;;;;;;;1.17;1.08;;;1.50;99.90;;;;;;5076474;28;20024;-87
2024/02/04 06:47:51;;;;;;;3.22;1.10;;;1.40;99.90;;;;;;5086317;28;20488;-85
2024/02/04 06:50:17;;;;;;;2.40;1.30;;;1.40;99.90;;;;;;5088652;28;20028;-85
2024/02/04 06:52:43;;;;;;;0.90;0.70;;;1.40;99.90;;;;;;5075823;28;20017;-84
2024/02/04 06:55:09;;;;;;;1.10;0.90;;;1.40;99.90;;;;;;5074974;28;20036;-85
2024/02/04 06:57:35;;;;;;;1.52;1.13;;;1.30;99.90;;;;;;5078454;28;20013;-86
2024/02/04 07:00:05;;;;;;;6.95;1.92;;;1.30;99.90;;;;;;5075704;28;20077;-85
2024/02/04 07:02:31;;;;;;;1.67;1.23;;;1.30;99.90;;;;;;5068447;28;20500;-85
2024/02/04 07:04:57;;;;;;;2.58;0.90;;;1.30;99.90;;;;;;5076346;28;20111;-87
2024/02/04 07:07:23;;;;;;;4.60;1.05;;;1.30;99.90;;;;;;5076417;28;20124;-86
2024/02/04 07:09:49;;;;;;;6.70;3.50;;;1.40;99.90;;;;;;5072274;28;20024;-89
2024/02/04 07:12:15;;;;;;;1.15;1.02;;;1.40;99.90;;;;;;5078636;28;20036;-87
2024/02/04 07:14:40;;;;;;;2.30;1.20;;;1.40;99.90;;;;;;5087633;28;20523;-84
2024/02/04 07:17:06;;;;;;;3.28;1.10;;;1.40;99.90;;;;;;5076194;28;20039;-85
2024/02/04 07:19:32;;;;;;;7.45;2.42;;;1.30;99.90;;;;;;5075833;28;20485;-85
2024/02/04 07:21:58;;;;;;;1.13;0.95;;;1.20;99.90;;;;;;5076342;28;20028;-87
2024/02/04 07:24:24;;;;;;;2.13;1.67;;;1.20;99.90;;;;;;5076403;28;20025;-87
2024/02/04 07:26:53;;;;;;;1.58;0.75;;;1.10;99.90;;;;;;5075187;28;20036;-85
2024/02/04 07:29:19;;;;;;;1.95;1.52;;;1.00;99.90;;;;;;5075454;28;20016;-86
2024/02/04 07:31:45;;;;;;;1.20;1.10;;;1.10;99.90;;;;;;5070150;28;20119;-87
2024/02/04 07:34:11;;;;;;;4.15;0.90;;;1.10;99.90;;;;;;5067324;28;20097;-86
2024/02/04 07:36:36;;;;;;;1.08;0.80;;;1.20;99.90;;;;;;5075725;28;20107;-85
2024/02/04 07:39:04;;;;;;;3.22;1.55;;;1.20;99.90;;;;;;5068800;28;20021;-84
2024/02/04 07:41:31;;;;;;;1.70;1.42;;;1.20;99.90;;;;;;5072631;28;20032;-86
2024/02/04 07:43:57;;;;;;;1.63;1.17;;;1.10;99.90;;;;;;5079728;28;20020;-87
2024/02/04 07:46:23;;;;;;;6.80;4.53;;;1.10;99.90;;;;;;5078231;28;20020;-84
2024/02/04 07:48:49;;;;;;;1.90;1.15;;;1.10;99.90;;;;;;5088775;28;20096;-85
2024/02/04 07:51:15;;;;;;;1.25;1.08;;;1.10;99.90;;;;;;5082224;28;20743;-85
2024/02/04 07:53:41;;;;;;;9.00;2.00;;;1.10;99.90;;;;;;5080004;28;20021;-86
2024/02/04 07:56:07;;;;;;;3.13;1.50;;;1.10;99.90;;;;;;5080534;28;20032;-85
2024/02/04 07:58:33;;;;;;;2.38;1.27;;;1.10;99.90;;;;;;5077676;28;20405;-83
2024/02/04 08:00:59;;;;;;;4.30;1.98;;;1.10;99.90;;;;;;5090039;28;20029;-88
2024/02/04 08:03:25;;;;;;;3.92;1.80;;;1.10;99.90;;;;;;5089015;28;20021;-90
2024/02/04 08:05:51;;;;;;;3.10;1.10;;;1.20;99.90;;;;;;5094236;28;20048;-89
2024/02/04 08:08:17;;;;;;;2.80;1.90;;;1.20;99.90;;;;;;5087568;28;20359;-86
2024/02/04 08:10:43;;;;;;;2.08;1.20;;;1.20;99.90;;;;;;5094279;28;20059;-87
2024/02/04 08:13:08;;;;;;;7.40;1.85;;;1.20;99.90;;;;;;5093000;28;20039;-89
2024/02/04 08:15:34;;;;;;;4.10;1.75;;;1.20;99.90;;;;;;5076724;28;20040;-90
2024/02/04 08:18:00;;;;;;;2.35;1.08;;;1.20;99.90;;;;;;5084143;28;20028;-90
2024/02/04 08:20:26;;;;;;;1.80;1.17;;;1.30;99.90;;;;;;5082412;28;20020;-89
2024/02/04 08:22:52;;;;;;;2.55;1.10;;;1.20;99.90;;;;;;5072707;28;20045;-86
2024/02/04 08:25:18;;;;;;;1.85;0.95;;;1.20;99.90;;;;;;5075846;28;20020;-89
2024/02/04 08:27:44;;;;;;;2.28;1.52;;;1.20;99.90;;;;;;5074015;28;20021;-92
2024/02/04 08:30:11;;;;;;;2.08;1.17;;;1.30;99.90;;;;;;5074522;28;20028;-89
2024/02/04 08:32:38;;;;;;;1.73;1.20;;;1.30;99.90;;;;;;5071724;28;20100;-92
2024/02/04 08:35:05;;;;;;;1.95;1.15;;;1.30;99.90;;;;;;5072354;28;20040;-93
2024/02/04 08:37:35;;;;;;;1.67;1.25;;;1.40;99.90;;;;;;5080387;28;20017;-87
2024/02/04 08:40:02;;;;;;;3.30;1.67;;;1.40;99.90;;;;;;5084621;28;20029;-89
2024/02/04 08:42:28;;;;;;;1.30;0.88;;;1.30;99.90;;;;;;5064485;28;20017;-88
2024/02/04 08:44:56;;;;;;;4.38;1.90;;;1.30;99.90;;;;;;5062292;28;20021;-91
2024/02/04 08:47:25;;;;;;;3.78;1.90;;;1.30;99.90;;;;;;5080871;28;20027;-89
2024/02/04 08:49:51;;;;;;;2.95;1.88;;;1.30;99.90;;;;;;5078640;28;20032;-90
2024/02/04 08:52:17;;;;;;;3.03;1.95;;;1.30;99.90;;;;;;5093268;28;20020;-91
2024/02/04 08:54:42;;;;;;;5.68;2.60;;;1.20;99.90;;;;;;5076944;28;20048;-88
2024/02/04 08:57:08;;;;;;;6.43;2.13;;;1.30;99.90;;;;;;5077817;28;20032;-88
2024/02/04 08:59:34;;;;;;;9.15;2.33;;;1.30;99.90;;;;;;5087589;28;20076;-90
2024/02/04 09:02:00;;;;;;;4.55;2.42;;;1.40;99.90;;;;;;5090017;28;20024;-87
2024/02/04 09:04:26;;;;;;;5.70;2.50;;;1.40;99.90;;;;;;5069515;28;20378;-86
2024/02/04 09:06:52;;;;;;;4.38;2.53;;;1.50;99.90;;;;;;5073882;28;20104;-87
2024/02/04 09:09:18;;;;;;;4.35;2.10;;;1.60;99.90;;;;;;5082567;28;20040;-92
2024/02/04 09:11:44;;;;;;;7.82;2.85;;;1.60;99.90;;;;;;5064272;28;20052;-92
2024/02/04 09:14:10;;;;;;;5.38;2.35;;;1.50;99.90;;;;;;5077362;28;20037;-91
2024/02/04 09:16:38;;;;;;;3.88;2.60;;;1.50;99.90;;;;;;5063498;28;20044;-89
2024/02/04 09:19:05;;;;;;;4.38;2.40;;;1.50;99.90;;;;;;5087818;28;20035;-89
2024/02/04 09:21:31;;;;;;;5.75;2.30;;;1.50;99.90;;;;;;5077988;28;20046;-88
2024/02/04 09:23:57;;;;;;;6.88;2.33;;;1.40;99.90;;;;;;5066795;28;20073;-89
2024/02/04 09:26:23;;;;;;;4.90;2.30;;;1.40;99.90;;;;;;5081059;28;20040;-91
2024/02/04 09:28:49;;;;;;;5.05;1.92;;;1.30;99.90;;;;;;5100829;28;20082;-85
2024/02/04 09:31:16;;;;;;;8.77;2.30;;;1.30;99.90;;;;;;5080248;28;20044;-86
2024/02/04 09:33:42;;;;;;;8.82;2.80;;;1.30;99.90;;;;;;5065313;28;20063;-86
2024/02/04 09:36:07;;;;;;;10.95;3.05;;;1.30;99.90;;;;;;5092313;28;20044;-82
2024/02/04 09:38:33;;;;;;;5.40;2.60;;;1.40;99.90;;;;;;5067609;28;20017;-84
2024/02/04 09:41:03;;;;;;;5.28;1.92;;;1.30;99.90;;;;;;5091662;28;20039;-82
2024/02/04 09:43:32;;;;;;;5.53;2.40;;;1.10;99.90;;;;;;5087493;28;20067;-84
2024/02/04 09:46:00;;;;;;;8.55;2.85;;;1.00;99.90;;;;;;5092384;28;20031;-81
2024/02/04 09:48:31;;;;;;;8.45;2.75;;;1.00;99.90;;;;;;5075784;28;20028;-81
2024/02/04 09:50:57;;;;;;;5.93;2.58;;;1.20;99.90;;;;;;5073521;28;20021;-85
2024/02/04 09:53:34;;;;;;;6.53;2.55;;;1.40;99.90;;;;;;5072402;28;20031;-85
2024/02/04 09:56:02;;;;;;;8.43;2.30;;;1.40;99.90;;;;;;5080559;28;20078;-84
2024/02/04 09:58:28;;;;;;;8.95;2.63;;;1.40;99.90;;;;;;5086748;28;20089;-86
2024/02/04 10:00:54;;;;;;;14.43;2.30;;;1.30;99.90;;;;;;5082837;28;20032;-89
2024/02/04 10:03:22;;;;;;;9.07;3.15;;;1.20;99.90;;;;;;5062858;28;20559;-86
2024/02/04 10:05:47;;;;;;;10.35;2.95;;;1.10;99.90;;;;;;5072092;28;20581;-85
2024/02/04 10:08:14;;;;;;;5.80;2.50;;;1.20;99.90;;;;;;5057053;28;20043;-84
2024/02/04 10:10:42;;;;;;;6.20;2.78;;;1.20;99.90;;;;;;5061053;28;20025;-84
2024/02/04 10:13:10;;;;;;;5.40;2.67;;;1.20;99.90;;;;;;5064980;28;20067;-81
2024/02/04 10:15:36;;;;;;;5.75;2.55;;;1.20;99.90;;;;;;5070502;28;20035;-84
2024/02/04 10:18:08;;;;;;;7.38;2.30;;;1.30;99.90;;;;;;5064499;28;20021;-84
2024/02/04 10:20:35;;;;;;;3.00;1.73;;;1.30;99.90;;;;;;5072606;28;20024;-83
2024/02/04 10:23:00;;;;;;;10.02;3.08;;;1.30;99.90;;;;;;5070734;28;20024;-83
2024/02/04 10:25:27;;;;;;;7.90;3.00;;;1.30;99.90;;;;;;5061885;28;20020;-83
2024/02/04 10:27:54;;;;;;;7.18;2.40;;;1.30;99.90;;;;;;5058739;28;20028;-83
2024/02/04 10:30:21;;;;;;;7.13;2.50;;;1.40;99.90;;;;;;5065676;28;20037;-82
2024/02/04 10:32:56;;;;;;;11.30;3.17;;;1.30;99.90;;;;;;5063601;28;20024;-82
2024/02/04 10:35:24;;;;;;;9.93;3.10;;;1.40;99.90;;;;;;5068394;28;20028;-85
2024/02/04 10:37:51;;;;;;;6.55;2.72;;;1.50;99.90;;;;;;5062235;28;20139;-85
2024/02/04 10:40:17;;;;;;;5.80;2.72;;;1.60;99.90;;;;;;5075020;28;20024;-82
2024/02/04 10:42:44;;;;;;;5.93;2.30;;;1.70;99.90;;;;;;5069818;28;20021;-84
2024/02/04 10:45:11;;;;;;;9.70;1.97;;;1.70;99.90;;;;;;5063257;28;20119;-82
2024/02/04 10:47:38;;;;;;;7.63;3.35;;;1.60;99.90;;;;;;5074624;28;20013;-82
2024/02/04 10:50:05;;;;;;;8.43;2.45;;;1.60;99.90;;;;;;5075309;28;20430;-81
2024/02/04 10:52:39;;;;;;;11.20;3.55;;;1.70;99.90;;;;;;5075111;28;20009;-84
2024/02/04 10:55:11;;;;;;;5.95;2.28;;;1.70;99.90;;;;;;5073461;28;20047;-81
2024/02/04 10:57:39;;;;;;;10.70;2.53;;;1.70;99.90;;;;;;5071737;28;20483;-80
2024/02/04 11:00:10;;;;;;;8.02;2.08;;;1.70;99.90;;;;;;5072726;28;20021;-85
2024/02/04 11:02:37;;;;;;;8.05;2.15;;;1.70;99.90;;;;;;5078414;28;20017;-81
2024/02/04 11:05:08;;;;;;;5.40;2.15;;;1.70;99.90;;;;;;5073640;28;20016;-79
2024/02/04 11:07:34;;;;;;;7.60;3.03;;;1.80;99.90;;;;;;5070394;28;20040;-84
2024/02/04 11:10:01;;;;;;;4.88;2.15;;;1.90;99.90;;;;;;5074638;28;20103;-82
2024/02/04 11:12:30;;;;;;;3.92;1.85;;;2.00;99.90;;;;;;5074576;28;20036;-83
2024/02/04 11:15:01;;;;;;;4.50;1.63;;;1.90;99.90;;;;;;5080096;28;20075;-85
2024/02/04 11:17:37;;;;;;;4.05;1.83;;;1.90;99.90;;;;;;5075622;28;20029;-84
2024/02/04 11:20:15;;;;;;;8.05;2.17;;;2.00;99.90;;;;;;5074357;28;20024;-81
2024/02/04 11:22:49;;;;;;;10.13;3.85;;;2.00;99.90;;;;;;5073938;28;20095;-80
2024/02/04 11:25:37;;;;;;;7.00;2.10;;;2.10;99.90;;;;;;5075486;28;20163;-82
2024/02/04 11:28:03;;;;;;;11.95;2.80;;;2.10;99.90;;;;;;5074864;28;20032;-83
2024/02/04 11:30:33;;;;;;;5.85;1.60;;;2.20;99.90;;;;;;5075067;28;20031;-84
2024/02/04 11:33:06;;;;;;;8.48;2.75;;;2.30;99.90;;;;;;5072364;28;20036;-81
2024/02/04 11:35:36;;;;;;;3.35;1.70;;;2.30;99.90;;;;;;5070155;28;20033;-81
2024/02/04 11:38:05;;;;;;;4.65;1.98;;;2.40;99.90;;;;;;5073216;28;20365;-82
2024/02/04 11:40:34;;;;;;;3.58;1.30;;;2.40;99.90;;;;;;5074775;28;20021;-84
2024/02/04 11:43:10;;;;;;;9.05;3.40;;;2.50;99.90;;;;;;5077068;28;20063;-83
2024/02/04 11:45:43;;;;;;;5.10;1.75;;;2.50;99.90;;;;;;5066769;28;20017;-82
2024/02/04 11:48:10;;;;;;;6.65;2.08;;;2.60;99.90;;;;;;5072904;28;20025;-82
2024/02/04 11:50:37;;;;;;;1.90;1.70;;;2.60;99.90;;;;;;5070581;28;20029;-82
2024/02/04 11:53:11;;;;;;;8.98;2.55;;;2.70;99.90;;;;;;5067967;28;20033;-85
2024/02/04 11:55:39;;;;;;;5.63;2.33;;;2.90;99.90;;;;;;5073542;28;20032;-85
2024/02/04 11:58:06;;;;;;;5.07;1.95;;;3.00;99.90;;;;;;5075599;28;20103;-82
2024/02/04 12:00:34;;;;;;;5.53;2.10;;;2.90;99.90;;;;;;5076336;28;20024;-84
2024/02/04 12:03:08;;;;;;;8.10;2.15;;;2.90;99.90;;;;;;5072803;28;20032;-82
2024/02/04 12:05:35;;;;;;;2.10;1.20;;;2.90;99.90;;;;;;5066003;28;20120;-84
2024/02/04 12:08:06;;;;;;;2.38;1.40;;;2.70;99.90;;;;;;5063690;28;20048;-83
2024/02/04 12:10:41;;;;;;;1.88;0.90;;;2.50;99.90;;;;;;5062733;28;20025;-80
2024/02/04 12:13:08;;;;;;;4.90;1.88;;;2.40;99.90;;;;;;5069487;28;20035;-80
2024/02/04 12:15:36;;;;;;;5.25;1.52;;;2.30;99.90;;;;;;5073011;28;20486;-81
2024/02/04 12:18:10;;;;;;;5.10;1.77;;;2.20;99.90;;;;;;5071928;28;20112;-81
2024/02/04 12:20:37;;;;;;;4.07;1.20;;;2.20;99.90;;;;;;5066374;28;20116;-81
2024/02/04 12:23:04;;;;;;;1.95;1.30;;;2.00;99.90;;;;;;5070550;28;20481;-81
2024/02/04 12:25:31;;;;;;;1.58;1.30;;;2.00;99.90;;;;;;5067901;28;20056;-82
2024/02/04 12:28:02;;;;;;;6.60;1.83;;;2.00;99.90;;;;;;5072746;28;20017;-82
2024/02/04 12:30:29;;;;;;;2.42;1.40;;;2.00;99.90;;;;;;5070159;28;20401;-81
2024/02/04 12:32:58;;;;;;;4.70;1.83;;;2.00;99.90;;;;;;5070496;28;20515;-82
2024/02/04 12:35:28;;;;;;;2.85;0.98;;;2.00;99.90;;;;;;5073081;28;20040;-84
2024/02/04 12:37:56;;;;;;;2.35;1.33;;;2.10;99.90;;;;;;5070877;28;20111;-83
2024/02/04 12:40:30;;;;;;;5.88;2.28;;;2.20;99.90;;;;;;5061214;28;20025;-84
2024/02/04 12:42:58;;;;;;;6.70;1.63;;;2.20;99.90;;;;;;5067570;28;20058;-89
2024/02/04 12:45:24;;;;;;;;;;;2.20;99.90;;;;;;5067952;28;20425;-91
2024/02/04 12:47:54;;;;;;;4.18;1.17;;;2.30;99.90;;;;;;5071446;28;19916;-83
2024/02/04 12:50:20;;;;;;;3.35;1.48;;;2.30;99.90;;;;;;5074839;28;20028;-82
2024/02/04 12:52:47;;;;;;;3.33;1.10;;;2.30;99.90;;;;;;5071656;28;20061;-87
2024/02/04 12:55:27;;;;;;;3.22;1.55;;;2.20;99.90;;;;;;5068216;28;20070;-91
2024/02/04 12:58:06;;;;;;;3.00;1.17;;;2.20;99.90;;;;;;5086215;28;20021;-89